Flight Track Log - Related Links

Times and Time Zones

All times are in EDT time to prevent confusion due to time zone crossing. See the DAL104 flight status page for this flight to view local times or setup timezone preferences in your user account.

Time Position Orientation Groundspeed Altitude Reporting Facility
EDT Latitude Longitude Course Direction KTS MPH feet Rate Location/Type
Sun 09:21:28 AM 33.6114 -84.5850 155° Southeast 307 353 6,200  Level Atlanta Center
Sun 09:45:10 AM 30.9325 -83.1081 149° Southeast 487 560 31,200 874 Climbing Jacksonville Center
Sun 09:46:11 AM 30.8072 -83.0208 150° Southeast 487 560 27,800 -2,132 Descending Jacksonville Center
Sun 09:47:11 AM 30.6967 -82.9481 150° Southeast 496 571 26,900 -403 Descending Jacksonville Center
Sun 09:48:10 AM 30.5797 -82.8683 149° Southeast 501 577 27,000 -252 Climbing Jacksonville Center
Sun 09:49:10 AM 30.4544 -82.7794 149° Southeast 496 571 26,400 -793 Descending Jacksonville Center
Sun 09:50:11 AM 30.3394 -82.7000 150° Southeast 489 563 25,400 -700 Descending Jacksonville Center
Sun 09:51:10 AM 30.2308 -82.6281 150° Southeast 489 563 25,000 -202 Descending Jacksonville Center
Sun 09:52:10 AM 30.1178 -82.5539 149° Southeast 489 563 25,000  Level Jacksonville Center
Sun 09:53:10 AM 30.0047 -82.4753 155° Southeast 489 563 25,000  Level Jacksonville Center
Sun 09:54:11 AM 29.8856 -82.4111 157° South 479 551 25,000  Level Jacksonville Center
Sun 09:55:11 AM 29.7622 -82.3519 157° South 479 551 25,000 -151 Level Jacksonville Center
Sun 09:56:10 AM 29.6389 -82.2928 158° South 479 551 24,700 -1,311 Descending Jacksonville Center
Sun 09:57:10 AM 29.5194 -82.2361 157° South 474 545 22,400 -2,300 Descending Jacksonville Center
Sun 09:58:10 AM 29.4044 -82.1797 158° South 467 537 20,100 -2,250 Descending Jacksonville Center
Sun 09:59:10 AM 29.2978 -82.1306 156° South 443 510 17,900 -2,231 Descending Jacksonville Center
Sun 10:00:11 AM 29.1950 -82.0792 158° South 421 484 15,600 -2,182 Descending Jacksonville Center
Sun 10:01:11 AM 29.0944 -82.0322 158° South 408 470 13,500 -2,017 Descending Jacksonville Center
Sun 10:02:10 AM 28.9983 -81.9881 158° South 387 445 11,600 -1,250 Descending Jacksonville Center
Sun 10:03:11 AM 28.9039 -81.9439 130° Southeast 360 414 11,000 -595 Descending Jacksonville Center
Sun 10:04:11 AM 28.8511 -81.8708 125° Southeast 308 354 10,400 -1,008 Descending Jacksonville Center
Sun 10:05:10 AM 28.8047 -81.7956 104° East 295 339 9,000 -656 Descending Jacksonville Center
Sun 10:06:19 AM 28.7833 -81.7000 115° Southeast 286 329 9,000 -140 Level Orlando TRACON
Sun 10:07:19 AM 28.7500 -81.6167 103° East 259 298 8,700 -950 Descending Orlando TRACON
Sun 10:08:19 AM 28.7333 -81.5333 103° East 257 296 7,100 -1,350 Descending Orlando TRACON
Sun 10:09:19 AM 28.7167 -81.4500 106° East 273 314 6,000 -650 Descending Orlando TRACON
Sun 10:10:19 AM 28.7000 -81.3833 139° Southeast 248 285 5,800 -600 Descending Orlando TRACON
Sun 10:11:19 AM 28.6500 -81.3333 168° South 223 257 4,800 -1,050 Descending Orlando TRACON
Sun 10:12:19 AM 28.5833 -81.3167 180° South 214 246 3,700 -1,240 Descending Orlando TRACON
Sun 10:13:20 AM 28.5333 -81.3167 180° South 190 219 2,300 -1,339 Descending Orlando TRACON
Sun 10:14:20 AM 28.4833 -81.3167 168° South 160 184 1,000 -1,300 Descending Orlando TRACON
Sun 10:21:32 AM 28.4167 -81.3000 328° Northwest  Level FlightAware Approximate
Sun 10:22:32 AM 28.5057 -81.3630 328° Northwest  Level Estimated

Login

Don't have an account? Register now (free) for customized features, flight alerts, and more!